KMHR/MHR METAR and TAF weather

Enter ICAO airport designator
Station Type Date Time Source
KMHR METAR 2019/12/09 13:45 UTC NOAA

KMHR 091345Z 07003KT 1/4SM FG OVC002 09/09 A3012


Station Type Date Time Source
KMHR Decoded METAR 2019/12/09 13:45 UTC NOAA

Sacramento, Sacramento Mather Airport, CA, United States (KMHR) 38-33N 121-18W
Dec 09, 2019 - 08:45 AM EST / 2019.12.09 1345 UTC
Wind: from the ENE (070 degrees) at 3 MPH (3 KT):0
Visibility: 1/4 mile(s):0
Sky conditions: overcast
Weather: fog
Temperature: 48 F (9 C)
Dew Point: 48 F (9 C)
Relative Humidity: 100%
Pressure (altimeter): 30.12 in. Hg (1019 hPa)
ob: KMHR 091345Z 07003KT 1/4SM FG OVC002 09/09 A3012
cycle: 14

Station Type Date Time Source
KMHR TAF 2019/12/09 12:22 UTC NOAA

TAF KMHR 091120Z 0912/1012 VRB03KT 1/4SM FG VV001
FM091500 VRB03KT 2SM BR OVC007
FM091800 13003KT P6SM FEW007

Example: see airport list